Weather at Pearland Regional Airport

Public forecast

Using degrees Fahrenheit for public forecast. Weather courtesy of forecast.io.

Current aviation weather report (METAR) for Pearland Regional Airport

2024/07/25 00:53 (retrieved 30 minutes ago)

KLVJ 250053Z AUTO 00000KT 10SM CLR 27/25 A3006 RMK AO2 SLP179 T02720250

Closest aviation forecast (TAF) to Pearland Regional Airport

Forecast is more than 12 hours old.

Closest forecast is Naval Air Station Corpus Christi Truax Field, 154.0 nm (285.2 km) SW.

2024/07/24 09:06 Ammendment (retrieved 16 hours ago)

TAF AMD KNGP 2409/2507 VRB05KT 9999 VCTS SCT020CB BKN050 BKN120 OVC250 QNH3000INS TEMPO 2409/2411 VRB15G25KT 3200 +TSRA BR BKN020CB OVC035 FM241100 15007KT 8000 -SHRA BR VCTS SCT020CB BKN040 OVC120 QNH3002INS TEMPO 2411/2417 VRB20G30KT 1600 +TSRA BR BKN018CB OVC025 FM241700 10010KT 9999 VCTS SCT020CB BKN040 BKN120 OVC250 QNH2997INS TEMPO 2417/2421 VRB20G30KT 6000 TSRA BR BKN020CB OVC030 FM242100 10014G20KT 9999 VCSH FEW020 SCT040 BKN120 BKN250 QNH2995INS FM250300 22010KT 9999 VCSH SCT020 BKN035 BKN100 OVC250 QNH2999INS AUTOMATED SENSOR METWATCH 2409 TIL 2411 TX31/2420Z TN26/2412Z AMD 0900 FN20044